Time;durP1;ratioP1;P1;durP2;ratioP2;P2;SDS_P1;SDS_P2;PMS_P1;PMS_P2;Temp;Humidity;BMP_temperature;BMP_pressure;BME280_temperature;BME280_humidity;BME280_pressure;Samples;Min_cycle;Max_cycle;Signal;HPM_P1;HPM_P2
2023/07/25 00:00:16;;;;;;;3.60;1.30;;;;;;;14.74;100.00;100115.72;4966882;28;20058;-63
2023/07/25 00:02:43;;;;;;;4.53;1.30;;;;;;;14.85;100.00;100131.69;5029451;28;20460;-65
2023/07/25 00:05:11;;;;;;;3.30;1.40;;;;;;;14.85;100.00;100115.88;5029727;28;20063;-65
2023/07/25 00:08:21;;;;;;;6.55;1.25;;;;;;;14.83;100.00;100124.84;5029956;28;20077;-65
2023/07/25 00:11:12;;;;;;;3.78;1.40;;;;;;;14.75;100.00;100109.50;5024794;28;20553;-65
2023/07/25 00:14:08;;;;;;;3.22;1.13;;;;;;;14.78;100.00;100115.44;5029879;28;20096;-65
2023/07/25 00:16:49;;;;;;;3.47;1.30;;;;;;;14.64;100.00;100096.19;5029743;28;20054;-65
2023/07/25 00:19:17;;;;;;;4.13;1.27;;;;;;;14.80;100.00;100110.03;5030631;28;20055;-65
2023/07/25 00:22:16;;;;;;;4.80;1.55;;;;;;;14.68;100.00;100109.06;5024099;28;20140;-65
2023/07/25 00:24:47;;;;;;;4.28;1.35;;;;;;;14.76;100.00;100100.66;5033415;28;20045;-65
2023/07/25 00:27:14;;;;;;;2.83;1.25;;;;;;;14.78;100.00;100102.28;5034040;28;20057;-65
2023/07/25 00:29:41;;;;;;;3.90;1.50;;;;;;;14.72;100.00;100093.91;5032727;28;20080;-65
2023/07/25 00:32:09;;;;;;;3.53;1.40;;;;;;;14.69;100.00;100088.84;5026596;28;20053;-65
2023/07/25 00:34:36;;;;;;;4.47;1.75;;;;;;;14.63;100.00;100092.72;5033254;28;20042;-65
2023/07/25 00:37:09;;;;;;;5.70;1.58;;;;;;;14.42;100.00;100087.84;5034278;28;20502;-65
2023/07/25 00:39:37;;;;;;;2.95;1.27;;;;;;;14.46;100.00;100087.66;5034008;28;20479;-65
2023/07/25 00:42:17;;;;;;;3.90;1.42;;;;;;;14.56;100.00;100097.50;5023499;28;20507;-65
2023/07/25 00:44:46;;;;;;;4.57;1.38;;;;;;;14.50;100.00;100078.59;5032083;28;20148;-65
2023/07/25 00:47:32;;;;;;;6.60;1.48;;;;;;;14.68;100.00;100101.16;5037237;28;20088;-65
2023/07/25 00:50:37;;;;;;;2.80;1.10;;;;;;;14.68;100.00;100100.31;5046963;28;20046;-65
2023/07/25 00:53:27;;;;;;;5.72;1.65;;;;;;;14.56;100.00;100101.94;5037577;28;20087;-64
2023/07/25 00:56:12;;;;;;;3.40;1.23;;;;;;;14.63;100.00;100103.25;5043108;28;20087;-65
2023/07/25 00:58:40;;;;;;;4.30;1.52;;;;;;;14.61;100.00;100100.72;5049947;28;20085;-65
2023/07/25 01:01:27;;;;;;;5.03;1.45;;;;;;;14.62;100.00;100091.00;5033722;28;20053;-65
2023/07/25 01:04:24;;;;;;;4.68;1.50;;;;;;;14.71;100.00;100106.22;5049937;28;20468;-65
2023/07/25 01:06:53;;;;;;;7.13;1.58;;;;;;;14.47;100.00;100081.47;5052970;28;20422;-65
2023/07/25 01:09:46;;;;;;;5.07;1.55;;;;;;;14.42;100.00;100076.47;5052499;28;20397;-65
2023/07/25 01:12:19;;;;;;;4.57;1.45;;;;;;;14.33;100.00;100077.06;5041214;28;20053;-65
2023/07/25 01:15:33;;;;;;;4.50;1.35;;;;;;;14.56;100.00;100094.03;5028916;28;20068;-65
2023/07/25 01:18:16;;;;;;;5.22;1.80;;;;;;;14.49;100.00;100087.47;5045334;28;20045;-65
2023/07/25 01:20:46;;;;;;;3.50;1.40;;;;;;;14.42;100.00;100073.84;5034326;28;20081;-65
2023/07/25 01:23:14;;;;;;;4.40;1.48;;;;;;;14.50;100.00;100084.75;5033889;28;20326;-65
2023/07/25 01:25:47;;;;;;;3.78;1.30;;;;;;;14.51;100.00;100075.03;5044636;28;20052;-65
2023/07/25 01:28:14;;;;;;;3.28;1.58;;;;;;;14.53;100.00;100067.88;5053096;28;20076;-65
2023/07/25 01:30:41;;;;;;;4.18;1.27;;;;;;;14.57;100.00;100077.25;5025242;28;20585;-65
2023/07/25 01:33:27;;;;;;;3.90;1.45;;;;;;;14.42;100.00;100066.78;4969494;28;20105;-65
2023/07/25 01:36:34;;;;;;;3.47;1.15;;;;;;;14.49;100.00;100077.75;4972153;28;20118;-65
2023/07/25 01:39:39;;;;;;;4.82;1.30;;;;;;;14.52;100.00;100069.66;4951114;28;20106;-65
2023/07/25 01:42:32;;;;;;;6.57;1.70;;;;;;;14.57;100.00;100069.34;4957897;28;20451;-65
2023/07/25 01:45:33;;;;;;;3.85;1.20;;;;;;;14.55;100.00;100071.25;4957304;28;20236;-65
2023/07/25 01:48:11;;;;;;;3.40;1.25;;;;;;;14.54;100.00;100059.03;4958521;28;20083;-65
2023/07/25 01:50:50;;;;;;;3.72;1.30;;;;;;;14.63;100.00;100055.84;4962886;28;20587;-65
2023/07/25 01:53:36;;;;;;;6.25;1.60;;;;;;;14.48;100.00;100057.63;4989770;28;20065;-66
2023/07/25 01:56:25;;;;;;;4.35;1.42;;;;;;;14.47;100.00;100055.94;5022986;28;20376;-65
2023/07/25 01:59:27;;;;;;;3.30;1.40;;;;;;;14.59;100.00;100059.63;5031255;28;20388;-65
2023/07/25 02:02:33;;;;;;;6.68;1.38;;;;;;;14.60;100.00;100056.03;5027068;28;20447;-65
2023/07/25 02:05:04;;;;;;;2.65;1.10;;;;;;;14.43;100.00;100057.09;5026202;28;20049;-65
2023/07/25 02:07:50;;;;;;;4.95;1.38;;;;;;;14.61;100.00;100060.38;5025336;28;20084;-65
2023/07/25 02:10:18;;;;;;;4.30;1.25;;;;;;;14.41;100.00;100045.78;5029001;28;20133;-66
2023/07/25 02:12:53;;;;;;;3.58;1.40;;;;;;;14.42;100.00;100036.97;5031621;28;20045;-65
2023/07/25 02:15:52;;;;;;;4.70;1.27;;;;;;;14.56;100.00;100049.25;5030777;28;20077;-66
2023/07/25 02:18:41;;;;;;;2.50;1.10;;;;;;;14.57;100.00;100054.41;5029722;28;20099;-65
2023/07/25 02:21:09;;;;;;;5.10;1.50;;;;;;;14.40;100.00;100044.97;5018120;28;20132;-65
2023/07/25 02:23:55;;;;;;;3.63;1.40;;;;;;;14.38;100.00;100049.50;4950073;29;20052;-65
2023/07/25 02:30:04;;;;;;;4.57;2.10;;;;;;;14.38;100.00;100049.50;4949084;28;20289;-65
2023/07/25 02:33:00;;;;;;;4.97;1.45;;;;;;;14.44;100.00;100043.81;4950779;28;20043;-66
2023/07/25 02:35:27;;;;;;;3.50;1.40;;;;;;;14.29;100.00;100036.91;4950082;28;20058;-65
2023/07/25 02:37:53;;;;;;;5.88;1.70;;;;;;;14.21;100.00;100039.19;4949495;29;20047;-66
2023/07/25 02:40:20;;;;;;;4.90;1.30;;;;;;;14.17;100.00;100029.81;4948519;28;20057;-66
2023/07/25 02:42:47;;;;;;;4.13;1.50;;;;;;;14.39;100.00;100034.53;4950040;29;20473;-65
2023/07/25 02:45:13;;;;;;;4.38;1.38;;;;;;;14.41;100.00;100044.03;4949521;28;20425;-65
2023/07/25 02:47:40;;;;;;;4.20;1.60;;;;;;;14.39;100.00;100039.78;4949332;28;20050;-65
2023/07/25 02:50:07;;;;;;;3.08;1.20;;;;;;;14.05;100.00;100034.06;4949077;29;20059;-65
2023/07/25 02:52:34;;;;;;;3.22;1.30;;;;;;;14.11;100.00;100040.72;4948943;29;20585;-65
2023/07/25 02:55:00;;;;;;;3.92;1.55;;;;;;;14.07;100.00;100042.69;4996228;28;20049;-65
2023/07/25 02:57:27;;;;;;;5.05;1.40;;;;;;;14.04;100.00;100037.63;5030524;28;20046;-65
2023/07/25 02:59:54;;;;;;;3.78;1.42;;;;;;;13.93;100.00;100026.94;5028842;28;20045;-65
2023/07/25 03:02:20;;;;;;;4.90;1.40;;;;;;;14.07;100.00;100036.59;5021447;28;20050;-65
2023/07/25 03:04:47;;;;;;;2.60;1.23;;;;;;;13.83;100.00;100014.34;5026106;28;20049;-65
2023/07/25 03:07:14;;;;;;;3.90;1.58;;;;;;;13.88;100.00;100021.94;5013044;28;20648;-65
2023/07/25 03:09:41;;;;;;;5.28;1.67;;;;;;;13.94;100.00;100034.72;5004803;28;20487;-64
2023/07/25 03:12:08;;;;;;;4.55;1.50;;;;;;;13.95;100.00;100023.28;5019968;28;20054;-65
2023/07/25 03:14:34;;;;;;;4.97;1.90;;;;;;;13.72;100.00;100042.25;5029194;28;20045;-65
2023/07/25 03:17:01;;;;;;;4.75;1.70;;;;;;;13.68;100.00;100024.03;5030187;28;20423;-65
2023/07/25 03:19:28;;;;;;;5.18;1.60;;;;;;;13.84;100.00;100031.81;5029982;28;20064;-65
2023/07/25 03:21:54;;;;;;;3.50;1.30;;;;;;;13.92;100.00;100033.97;5017276;28;20104;-65
2023/07/25 03:24:21;;;;;;;4.90;1.60;;;;;;;13.94;100.00;100020.75;5030194;28;20045;-65
2023/07/25 03:26:48;;;;;;;4.55;1.73;;;;;;;13.80;100.00;100027.69;5025536;28;20081;-66
2023/07/25 03:29:14;;;;;;;4.35;1.58;;;;;;;13.85;100.00;100020.38;5020013;28;20057;-65
2023/07/25 03:31:41;;;;;;;4.93;1.52;;;;;;;13.98;100.00;100024.84;5015136;28;20057;-65
2023/07/25 03:34:08;;;;;;;3.22;1.30;;;;;;;13.81;100.00;100018.88;5030154;28;20037;-64
2023/07/25 03:36:34;;;;;;;4.18;1.60;;;;;;;13.73;100.00;100017.66;5029811;28;20136;-65
2023/07/25 03:39:02;;;;;;;2.88;1.10;;;;;;;13.71;100.00;100033.53;5029716;28;20414;-66
2023/07/25 03:41:29;;;;;;;3.97;1.70;;;;;;;13.66;100.00;100025.06;5027815;28;20427;-65
2023/07/25 03:43:56;;;;;;;3.90;1.40;;;;;;;13.67;100.00;100032.88;5011499;28;20041;-65
2023/07/25 03:46:23;;;;;;;4.20;1.60;;;;;;;13.66;100.00;100033.81;5030221;28;20057;-65
2023/07/25 03:48:49;;;;;;;2.88;1.27;;;;;;;13.75;100.00;100034.19;5029678;28;20158;-65
2023/07/25 03:51:16;;;;;;;4.22;1.40;;;;;;;13.83;100.00;100024.88;5024835;28;20045;-65
2023/07/25 03:53:42;;;;;;;4.88;1.60;;;;;;;13.84;100.00;100034.44;5026650;28;20045;-65
2023/07/25 03:56:09;;;;;;;3.92;1.30;;;;;;;13.85;100.00;100032.69;5030886;28;20057;-65
2023/07/25 03:58:36;;;;;;;4.30;1.50;;;;;;;13.79;100.00;100031.28;5015137;28;20046;-64
2023/07/25 04:01:03;;;;;;;7.13;1.83;;;;;;;13.79;100.00;100028.66;5014817;28;20056;-64
2023/07/25 04:03:29;;;;;;;6.53;2.00;;;;;;;13.79;100.00;100025.16;5033610;28;20049;-65
2023/07/25 04:05:56;;;;;;;6.28;1.60;;;;;;;13.85;100.00;100019.53;5013194;28;20048;-65
2023/07/25 04:08:23;;;;;;;3.65;1.40;;;;;;;13.95;100.00;100018.00;5023962;28;20475;-65
2023/07/25 04:10:49;;;;;;;6.57;1.60;;;;;;;13.89;100.00;100001.75;5032477;28;20041;-66
2023/07/25 04:13:16;;;;;;;5.10;1.60;;;;;;;14.02;100.00;100011.41;5029722;28;20046;-65
2023/07/25 04:15:43;;;;;;;3.55;1.50;;;;;;;13.95;100.00;99993.47;5027713;28;20065;-65
2023/07/25 04:18:09;;;;;;;3.70;1.30;;;;;;;13.97;100.00;100004.72;5033744;28;20060;-66
2023/07/25 04:20:36;;;;;;;2.92;1.48;;;;;;;13.82;100.00;100010.03;5027325;28;20438;-66
2023/07/25 04:23:03;;;;;;;5.60;1.70;;;;;;;13.86;100.00;100003.66;5033421;28;20057;-65
2023/07/25 04:25:29;;;;;;;4.03;1.55;;;;;;;13.76;100.00;99992.00;5033441;28;20407;-65
2023/07/25 04:27:56;;;;;;;5.97;2.05;;;;;;;13.65;100.00;100003.19;5033689;28;20052;-65
2023/07/25 04:30:23;;;;;;;4.90;1.80;;;;;;;13.53;100.00;100009.22;5014582;28;20483;-65
2023/07/25 04:32:49;;;;;;;5.93;1.60;;;;;;;13.51;100.00;100010.22;5015751;28;20057;-66
2023/07/25 04:35:16;;;;;;;5.90;1.88;;;;;;;13.50;100.00;100004.13;5033506;28;20053;-66
2023/07/25 04:37:43;;;;;;;5.40;1.83;;;;;;;13.56;100.00;100002.91;5035929;28;20056;-66
2023/07/25 04:40:10;;;;;;;5.15;1.80;;;;;;;13.47;100.00;99999.06;5029532;28;20054;-65
2023/07/25 04:42:36;;;;;;;6.30;1.95;;;;;;;13.43;100.00;100011.53;5033089;28;20041;-65
2023/07/25 04:45:04;;;;;;;5.35;1.75;;;;;;;13.44;100.00;100008.00;5033446;28;20041;-66
2023/07/25 04:47:30;;;;;;;6.22;2.08;;;;;;;13.32;100.00;100013.16;5029666;28;20068;-65
2023/07/25 04:49:57;;;;;;;6.47;2.30;;;;;;;13.28;100.00;100000.16;5029515;28;20053;-65
2023/07/25 04:52:24;;;;;;;7.15;2.30;;;;;;;13.25;100.00;99999.50;5032808;28;20041;-66
2023/07/25 04:54:55;;;;;;;8.70;2.40;;;;;;;13.09;100.00;100003.03;5014530;28;20056;-65
2023/07/25 04:57:21;;;;;;;6.68;2.55;;;;;;;13.08;100.00;99997.88;5031139;28;20076;-65
2023/07/25 04:59:48;;;;;;;7.63;2.50;;;;;;;13.27;100.00;100014.22;5032665;28;20053;-65
2023/07/25 05:02:15;;;;;;;7.35;2.45;;;;;;;13.33;100.00;100020.09;5028221;28;20060;-64
2023/07/25 05:04:41;;;;;;;7.00;2.47;;;;;;;13.29;100.00;100017.59;5020780;28;20483;-64
2023/07/25 05:07:08;;;;;;;6.45;2.25;;;;;;;13.42;100.00;100022.16;5028367;28;20400;-64
2023/07/25 05:09:35;;;;;;;7.63;2.53;;;;;;;13.32;100.00;100021.88;5031791;28;20049;-65
2023/07/25 05:12:04;;;;;;;6.47;2.40;;;;;;;13.23;100.00;99996.97;5026884;28;20094;-65
2023/07/25 05:14:30;;;;;;;8.65;2.65;;;;;;;13.44;100.00;100002.72;5011804;28;20096;-65
2023/07/25 05:16:57;;;;;;;6.57;2.60;;;;;;;13.45;100.00;99996.50;5031567;28;20111;-66
2023/07/25 05:19:24;;;;;;;10.23;3.03;;;;;;;13.62;100.00;100019.16;5032585;28;20511;-66
2023/07/25 05:21:50;;;;;;;8.43;3.17;;;;;;;13.50;100.00;100024.34;5024129;28;20048;-66
2023/07/25 05:24:17;;;;;;;7.95;2.65;;;;;;;13.66;100.00;100036.44;5032398;28;20399;-65
2023/07/25 05:26:45;;;;;;;7.63;2.70;;;;;;;13.61;100.00;100024.50;5031449;28;20056;-65
2023/07/25 05:29:12;;;;;;;9.27;3.10;;;;;;;13.49;100.00;100023.47;5031549;28;20065;-66
2023/07/25 05:31:38;;;;;;;9.80;3.35;;;;;;;13.53;100.00;100027.63;5019562;28;20103;-66
2023/07/25 05:34:05;;;;;;;8.43;3.17;;;;;;;13.61;100.00;100032.41;5031464;28;20515;-66
2023/07/25 05:36:32;;;;;;;7.18;2.67;;;;;;;13.76;100.00;100023.56;5043538;28;20064;-66
2023/07/25 05:38:58;;;;;;;9.07;3.25;;;;;;;13.63;100.00;100022.63;5014621;28;20049;-66
2023/07/25 05:41:25;;;;;;;8.45;3.50;;;;;;;13.55;100.00;100051.19;5008679;28;20057;-66
2023/07/25 05:43:51;;;;;;;10.63;3.35;;;;;;;13.45;100.00;100029.88;5030592;28;20076;-66
2023/07/25 05:46:18;;;;;;;7.80;2.85;;;;;;;13.56;100.00;100043.19;5014340;28;20057;-66
2023/07/25 05:48:45;;;;;;;9.90;3.53;;;;;;;13.68;100.00;100047.69;5032265;28;20042;-66
2023/07/25 05:51:11;;;;;;;8.30;2.90;;;;;;;13.75;100.00;100050.81;5031421;28;20049;-66
2023/07/25 05:53:38;;;;;;;8.68;2.95;;;;;;;13.97;100.00;100049.47;5031003;28;20053;-66
2023/07/25 05:56:05;;;;;;;7.38;2.60;;;;;;;13.86;100.00;100048.38;5031421;28;20530;-66
2023/07/25 05:58:32;;;;;;;7.43;2.78;;;;;;;13.97;100.00;100049.47;5032092;28;20041;-64
2023/07/25 06:00:59;;;;;;;7.13;2.85;;;;;;;13.95;100.00;100046.09;5013182;28;20050;-64
2023/07/25 06:03:26;;;;;;;6.68;2.28;;;;;;;13.62;100.00;100047.25;5032215;28;20494;-64
2023/07/25 06:05:52;;;;;;;7.30;2.45;;;;;;;13.50;100.00;100061.16;5034384;28;20053;-65
2023/07/25 06:08:19;;;;;;;6.80;2.25;;;;;;;13.56;100.00;100061.59;5013383;28;20388;-65
2023/07/25 06:10:46;;;;;;;5.97;2.17;;;;;;;13.51;100.00;100068.09;5027024;28;20041;-64
2023/07/25 06:13:12;;;;;;;9.93;2.83;;;;;;;13.46;100.00;100061.34;5030988;28;20459;-65
2023/07/25 06:15:39;;;;;;;5.65;1.90;;;;;;;13.74;100.00;100066.69;5031499;28;20120;-65
2023/07/25 06:18:06;;;;;;;5.55;1.67;;;;;;;13.73;100.00;100070.28;5031239;28;20137;-65
2023/07/25 06:20:33;;;;;;;4.53;1.40;;;;;;;13.52;100.00;100075.88;5028744;28;20136;-65
2023/07/25 06:23:01;;;;;;;4.70;1.67;;;;;;;13.56;100.00;100079.19;5013677;28;20060;-65
2023/07/25 06:25:28;;;;;;;6.60;1.50;;;;;;;13.53;100.00;100074.09;5030791;28;20052;-64
2023/07/25 06:27:54;;;;;;;4.80;1.40;;;;;;;13.52;100.00;100077.69;5017751;28;20460;-64
2023/07/25 06:30:21;;;;;;;4.13;1.20;;;;;;;13.78;100.00;100070.84;5011436;28;20041;-64
2023/07/25 06:32:48;;;;;;;3.20;1.13;;;;;;;14.22;100.00;100075.94;5030873;28;20069;-65
2023/07/25 06:35:17;;;;;;;4.43;1.30;;;;;;;14.40;100.00;100070.47;5031343;28;20046;-66
2023/07/25 06:37:44;;;;;;;8.63;1.38;;;;;;;14.02;100.00;100064.06;5029192;28;20563;-65
2023/07/25 06:40:11;;;;;;;4.13;1.30;;;;;;;15.10;100.00;100085.25;5023139;28;20046;-65
2023/07/25 06:42:38;;;;;;;3.33;1.20;;;;;;;14.82;100.00;100076.56;5023845;28;20258;-65
2023/07/25 06:45:05;;;;;;;3.85;1.40;;;;;;;15.12;100.00;100083.34;5004792;28;20400;-65
2023/07/25 06:47:32;;;;;;;3.50;1.30;;;;;;;15.35;100.00;100093.22;4991789;28;20273;-65
2023/07/25 06:49:59;;;;;;;3.10;1.17;;;;;;;15.19;100.00;100068.81;5009915;28;20054;-65
2023/07/25 06:52:26;;;;;;;3.25;1.15;;;;;;;15.50;100.00;100080.75;5029526;28;20045;-65
2023/07/25 06:54:53;;;;;;;3.80;1.17;;;;;;;15.88;100.00;100085.22;5010188;28;20045;-65
2023/07/25 06:57:19;;;;;;;3.35;0.95;;;;;;;16.16;100.00;100085.91;5029498;28;20060;-65
2023/07/25 06:59:48;;;;;;;3.38;1.05;;;;;;;15.91;100.00;100089.44;5024561;28;20491;-65
2023/07/25 07:02:15;;;;;;;3.10;1.10;;;;;;;15.97;100.00;100096.94;5011453;28;20099;-65
2023/07/25 07:04:41;;;;;;;2.70;1.00;;;;;;;16.71;100.00;100094.25;5028303;28;20133;-64
2023/07/25 07:07:08;;;;;;;3.00;0.93;;;;;;;16.57;100.00;100107.66;5011412;28;20335;-64
2023/07/25 07:09:35;;;;;;;2.92;1.10;;;;;;;16.24;100.00;100114.41;5011588;28;20054;-64
2023/07/25 07:12:01;;;;;;;2.45;0.88;;;;;;;16.32;100.00;100099.72;5014701;28;20136;-64
2023/07/25 07:14:28;;;;;;;2.17;0.90;;;;;;;16.53;100.00;100114.97;5030068;28;20055;-65
2023/07/25 07:16:55;;;;;;;3.83;1.23;;;;;;;16.31;100.00;100107.75;5025556;28;20050;-65
2023/07/25 07:19:22;;;;;;;4.45;1.30;;;;;;;16.24;100.00;100115.25;5006705;28;20136;-66
2023/07/25 07:21:49;;;;;;;4.65;1.40;;;;;;;16.02;100.00;100104.50;5011400;28;20053;-65
2023/07/25 07:24:15;;;;;;;6.38;1.20;;;;;;;15.78;100.00;100107.09;5027868;28;20280;-65
2023/07/25 07:26:42;;;;;;;4.65;1.33;;;;;;;15.66;100.00;100104.31;5027646;28;20045;-66
2023/07/25 07:29:11;;;;;;;3.75;1.30;;;;;;;15.97;100.00;100111.91;5025789;28;20057;-65
2023/07/25 07:31:38;;;;;;;5.78;1.40;;;;;;;15.82;100.00;100106.75;5016932;28;20821;-65
2023/07/25 07:34:14;;;;;;;3.38;1.20;;;;;;;16.01;100.00;100108.13;5023014;28;20053;-65
2023/07/25 07:36:42;;;;;;;3.50;1.20;;;;;;;16.46;100.00;100114.53;5020217;28;20143;-65
2023/07/25 07:39:09;;;;;;;3.50;1.20;;;;;;;16.59;100.00;100124.22;5025223;28;20148;-65
2023/07/25 07:41:35;;;;;;;7.03;1.75;;;;;;;17.00;100.00;100097.44;5024873;28;20041;-65
2023/07/25 07:44:02;;;;;;;4.68;1.30;;;;;;;17.85;100.00;100106.88;5011372;28;20059;-65
2023/07/25 07:46:30;;;;;;;4.93;1.33;;;;;;;17.18;100.00;100097.84;5005433;28;20048;-65
2023/07/25 07:48:58;;;;;;;7.15;1.75;;;;;;;17.63;100.00;100107.69;5021271;28;20045;-66
2023/07/25 07:51:25;;;;;;;5.32;1.38;;;;;;;17.26;100.00;100115.78;5024419;28;20060;-66
2023/07/25 07:53:52;;;;;;;5.32;1.50;;;;;;;17.11;100.00;100120.44;5020751;28;20052;-65
2023/07/25 07:56:19;;;;;;;4.13;1.20;;;;;;;17.14;100.00;100104.34;4997661;28;20050;-66
2023/07/25 07:58:46;;;;;;;3.95;1.20;;;;;;;17.49;100.00;100108.75;5018064;28;20396;-66
2023/07/25 08:01:17;;;;;;;4.20;1.30;;;;;;;17.76;100.00;100102.28;5014234;28;20064;-65
2023/07/25 08:03:45;;;;;;;6.63;1.52;;;;;;;17.34;100.00;100117.88;5026187;28;20049;-65
2023/07/25 08:06:11;;;;;;;6.05;1.35;;;;;;;16.84;100.00;100125.97;5010345;28;20060;-66
2023/07/25 08:08:39;;;;;;;5.45;1.30;;;;;;;16.74;100.00;100119.66;5022645;28;20049;-65
2023/07/25 08:11:06;;;;;;;4.72;1.27;;;;;;;16.58;100.00;100118.13;5026292;28;20188;-65
2023/07/25 08:13:32;;;;;;;3.92;1.20;;;;;;;16.63;100.00;100147.69;5027708;28;20042;-65
2023/07/25 08:16:00;;;;;;;4.50;1.23;;;;;;;16.40;100.00;100144.06;5021696;28;20052;-65
2023/07/25 08:18:26;;;;;;;4.25;1.30;;;;;;;16.49;100.00;100148.69;5029304;28;20077;-65
2023/07/25 08:20:57;;;;;;;5.00;1.33;;;;;;;16.53;100.00;100141.38;5027614;28;20461;-65
2023/07/25 08:23:25;;;;;;;2.92;1.00;;;;;;;16.52;100.00;100145.00;5011065;28;20049;-65
2023/07/25 08:25:54;;;;;;;4.53;1.23;;;;;;;16.11;100.00;100138.19;5010776;28;20055;-66
2023/07/25 08:28:21;;;;;;;5.03;1.20;;;;;;;15.87;100.00;100132.84;5020819;28;20077;-66
2023/07/25 08:30:48;;;;;;;3.58;1.00;;;;;;;15.83;100.00;100132.22;5024392;28;20049;-65
2023/07/25 08:33:19;;;;;;;4.35;1.30;;;;;;;16.21;100.00;100135.75;5029832;28;20057;-65
2023/07/25 08:35:47;;;;;;;2.85;1.00;;;;;;;16.17;100.00;100129.00;4998617;28;20049;-66
2023/07/25 08:38:14;;;;;;;2.38;0.90;;;;;;;16.09;100.00;100135.66;5033852;28;20419;-66
2023/07/25 08:40:41;;;;;;;3.90;0.98;;;;;;;16.35;100.00;100126.84;5026909;28;20048;-66
2023/07/25 08:43:11;;;;;;;7.82;1.13;;;;;;;16.65;100.00;100127.28;5028669;28;20053;-66
2023/07/25 08:45:40;;;;;;;5.20;1.33;;;;;;;16.29;100.00;100134.25;5027588;28;20049;-66
2023/07/25 08:48:12;;;;;;;4.07;1.10;;;;;;;16.21;100.00;100123.38;5028863;28;20049;-65
2023/07/25 08:50:42;;;;;;;2.50;1.00;;;;;;;16.74;100.00;100132.88;5011318;28;20049;-66
2023/07/25 08:53:11;;;;;;;3.05;1.10;;;;;;;17.00;100.00;100139.75;5030656;28;20049;-66
2023/07/25 08:55:38;;;;;;;2.10;1.00;;;;;;;16.89;100.00;100124.69;5031557;28;20042;-66
2023/07/25 08:58:05;;;;;;;3.60;1.00;;;;;;;17.19;100.00;100133.06;5040867;28;20291;-66
2023/07/25 09:00:33;;;;;;;4.70;1.02;;;;;;;17.35;100.00;100119.53;5029923;28;20041;-66
2023/07/25 09:03:01;;;;;;;3.70;1.00;;;;;;;16.81;100.00;100129.66;5037829;28;20053;-66
2023/07/25 09:05:29;;;;;;;3.85;1.17;;;;;;;16.65;100.00;100115.88;5032544;28;20522;-66
2023/07/25 09:07:58;;;;;;;2.72;0.98;;;;;;;17.01;100.00;100117.63;5027762;28;20041;-66
2023/07/25 09:10:27;;;;;;;3.83;1.20;;;;;;;17.03;100.00;100128.09;5028626;28;20140;-66
2023/07/25 09:12:54;;;;;;;3.38;1.10;;;;;;;16.83;100.00;100122.47;5019582;28;20157;-66
2023/07/25 09:15:21;;;;;;;4.32;1.30;;;;;;;16.24;100.00;100133.75;5015678;28;20045;-66
2023/07/25 09:17:52;;;;;;;4.47;0.98;;;;;;;16.32;100.00;100127.91;5030564;28;20057;-66
2023/07/25 09:20:19;;;;;;;4.55;1.27;;;;;;;16.57;100.00;100134.06;5027663;28;20151;-66
2023/07/25 09:22:48;;;;;;;4.68;1.10;;;;;;;16.45;100.00;100144.59;5032544;28;20045;-66
2023/07/25 09:25:15;;;;;;;2.75;1.02;;;;;;;16.68;100.00;100140.28;5029915;28;20060;-66
2023/07/25 09:27:46;;;;;;;2.15;0.93;;;;;;;16.74;100.00;100146.91;5013000;28;20079;-66
2023/07/25 09:30:14;;;;;;;3.63;1.02;;;;;;;17.11;100.00;100144.25;5008519;28;20064;-66
2023/07/25 09:32:48;;;;;;;3.85;1.10;;;;;;;16.96;100.00;100146.19;5027939;28;20388;-66
2023/07/25 09:35:15;;;;;;;5.35;1.10;;;;;;;16.64;100.00;100137.97;5024217;28;20498;-66
2023/07/25 09:38:00;;;;;;;3.47;1.25;;;;;;;17.16;100.00;100143.91;5029155;28;20403;-66
2023/07/25 09:40:37;;;;;;;4.80;1.25;;;;;;;16.86;100.00;100134.63;5012390;28;20144;-66
2023/07/25 09:43:06;;;;;;;2.05;0.90;;;;;;;17.11;100.00;100151.34;5038869;28;20049;-66
2023/07/25 09:45:38;;;;;;;2.88;1.00;;;;;;;17.48;100.00;100143.28;5032959;28;20045;-66
2023/07/25 09:48:05;;;;;;;4.72;1.20;;;;;;;17.77;100.00;100138.41;5031585;28;20064;-66
2023/07/25 09:50:39;;;;;;;2.50;1.00;;;;;;;17.69;100.00;100144.28;5029578;28;20045;-66
2023/07/25 09:53:11;;;;;;;4.15;1.10;;;;;;;17.70;100.00;100145.13;5029276;28;20054;-63
2023/07/25 09:55:40;;;;;;;5.97;1.30;;;;;;;17.70;100.00;100140.66;5013241;28;20152;-65
2023/07/25 09:58:08;;;;;;;3.83;1.02;;;;;;;18.07;100.00;100152.91;5029912;28;20056;-65
2023/07/25 10:00:35;;;;;;;2.55;1.00;;;;;;;18.33;100.00;100148.19;5027335;28;20049;-65
2023/07/25 10:03:02;;;;;;;3.13;1.00;;;;;;;18.25;100.00;100132.06;5028783;28;20103;-65
2023/07/25 10:05:30;;;;;;;5.75;1.42;;;;;;;18.47;100.00;100141.78;5033472;28;20051;-64
2023/07/25 10:08:00;;;;;;;3.90;1.08;;;;;;;18.48;100.00;100141.66;5021368;28;20057;-65
2023/07/25 10:10:28;;;;;;;2.03;0.90;;;;;;;17.99;100.00;100137.63;5028443;28;20050;-65
2023/07/25 10:12:55;;;;;;;4.80;1.20;;;;;;;18.39;100.00;100137.94;5030806;28;20050;-64
2023/07/25 10:15:22;;;;;;;2.88;1.00;;;;;;;18.44;100.00;100124.31;5030826;28;20136;-65
2023/07/25 10:17:49;;;;;;;3.15;1.00;;;;;;;18.85;100.00;100144.00;5015306;28;20045;-65
2023/07/25 10:20:22;;;;;;;2.10;0.77;;;;;;;19.16;100.00;100136.19;5028411;28;20049;-65
2023/07/25 10:22:50;;;;;;;5.57;1.23;;;;;;;18.87;100.00;100147.38;5029841;28;20079;-66
2023/07/25 10:25:35;;;;;;;2.63;0.93;;;;;;;18.76;100.00;100148.22;5026395;28;20041;-66
2023/07/25 10:28:03;;;;;;;3.55;1.08;;;;;;;18.84;100.00;100136.19;5039807;28;20061;-66
2023/07/25 10:30:33;;;;;;;3.38;0.85;;;;;;;18.76;100.00;100136.78;5012225;28;20049;-66
2023/07/25 10:33:03;;;;;;;1.88;0.80;;;;;;;19.32;100.00;100125.13;5029958;28;20055;-65
2023/07/25 10:35:46;;;;;;;3.00;0.90;;;;;;;19.56;100.00;100129.34;5030060;28;20046;-66
2023/07/25 10:38:14;;;;;;;1.98;0.77;;;;;;;19.83;100.00;100137.63;5026616;28;20058;-66
2023/07/25 10:40:51;;;;;;;2.13;0.85;;;;;;;20.03;100.00;100138.56;5025080;28;20418;-66
2023/07/25 10:43:20;;;;;;;3.40;0.90;;;;;;;19.30;100.00;100143.84;5041232;28;20059;-66
2023/07/25 10:45:49;;;;;;;2.65;0.90;;;;;;;19.21;100.00;100133.13;5017481;28;20483;-66
2023/07/25 10:48:55;;;;;;;3.30;1.02;;;;;;;19.32;99.86;100125.97;5032704;28;20444;-66
2023/07/25 10:51:45;;;;;;;2.90;1.00;;;;;;;19.06;99.84;100133.44;4985141;28;20052;-66
2023/07/25 10:54:18;;;;;;;2.00;0.82;;;;;;;19.26;100.00;100126.47;5025385;28;20045;-66
2023/07/25 10:57:03;;;;;;;;;;;;;;;19.68;100.00;100122.97;5028786;28;20042;-66
2023/07/25 10:59:33;;;;;;;4.55;1.10;;;;;;;19.51;100.00;100124.41;5018724;28;19929;-65
2023/07/25 11:02:00;;;;;;;2.13;0.82;;;;;;;19.33;100.00;100127.63;5025610;28;20357;-65
2023/07/25 11:04:31;;;;;;;3.20;1.00;;;;;;;19.04;100.00;100137.22;5029373;28;20383;-66
2023/07/25 11:07:10;;;;;;;3.58;1.02;;;;;;;18.60;100.00;100123.94;5029073;28;20456;-65
2023/07/25 11:09:45;;;;;;;3.47;1.02;;;;;;;18.82;100.00;100132.81;5027741;28;20129;-65
2023/07/25 11:12:13;;;;;;;6.47;1.30;;;;;;;19.88;100.00;100126.59;5025071;28;20342;-65
2023/07/25 11:14:44;;;;;;;3.58;1.25;;;;;;;19.65;100.00;100116.09;5009759;28;20196;-66
2023/07/25 11:17:12;;;;;;;4.80;1.00;;;;;;;19.39;100.00;100106.84;5027457;28;20065;-66
2023/07/25 11:19:51;;;;;;;4.63;1.40;;;;;;;19.18;100.00;100125.47;5027778;28;20059;-65
2023/07/25 11:22:19;;;;;;;3.50;1.15;;;;;;;19.08;97.72;100110.28;5007674;28;20486;-66
2023/07/25 11:24:50;;;;;;;4.18;1.20;;;;;;;18.70;100.00;100135.47;5023374;28;20049;-65
2023/07/25 11:27:17;;;;;;;3.83;1.15;;;;;;;18.59;100.00;100136.34;5029151;28;20072;-65
2023/07/25 11:29:44;;;;;;;3.13;1.20;;;;;;;18.64;100.00;100125.34;5028070;28;20041;-65
2023/07/25 11:32:11;;;;;;;4.07;1.17;;;;;;;19.06;100.00;100128.13;5024716;28;20132;-65
2023/07/25 11:34:39;;;;;;;2.67;0.93;;;;;;;19.35;100.00;100132.81;5029356;28;20053;-65
2023/07/25 11:37:11;;;;;;;2.50;0.98;;;;;;;19.56;100.00;100135.47;5011838;28;20065;-66